LFST Airport Information

Runway Information
Runway 05 Length 7874 ft width 148 ft
Elevation 503 ft Threshold 0 ft Heading 49
Runway 23 Length 7874 ft Width 148 ft
Elevation 491 ft Threshold 0 ft Heading 229
Airport Frequencies
Type APP Name STRASBOURG Frequency 119.45 MHZ
Type ATIS Name STRASBOURG Frequency 126.925 MHZ
Type GND Name STRASBOURG Frequency 121.8 MHZ
Type TWR Name STRASBOURG Frequency 126.875 MHZ
Airport Navaids
Type VOR-DME Name Saverne Frequency 110450 KHZ
Type VOR-DME Name Strasbourg Frequency 115600 KHZ
Airport Weather Information & NOTAM
ADDS - METARS form results

(0813 UTC 22 May 2018)
 
METAR text: LFST 220800Z AUTO 21004KT 130V260 CAVOK 18/14 Q1012
Conditions at: LFST (STRASBOURG/ENTZH, FR) observed 0800 UTC 22 May 2018
Temperature: 18.0°C (64°F)
Dewpoint: 14.0°C (57°F) [RH = 77%]
Pressure (altimeter): 29.88 inches Hg (1012.0 mb)
Winds: from the SSW (210 degrees) at 5 MPH (4 knots; 2.1 m/s)
Visibility: 6 or more miles (10+ km)
Ceiling: ceiling and visibility are OK
Clouds: unknown
Weather: no significant weather observed at this time

METAR text: LFST 220730Z AUTO VRB03KT CAVOK 18/14 Q1012
Conditions at: LFST (STRASBOURG/ENTZH, FR) observed 0730 UTC 22 May 2018
Temperature: 18.0°C (64°F)
Dewpoint: 14.0°C (57°F) [RH = 77%]
Pressure (altimeter): 29.88 inches Hg (1012.0 mb)
Winds: variable direction winds at 3 MPH (3 knots; 1.6 m/s)
Visibility: 6 or more miles (10+ km)
Ceiling: ceiling and visibility are OK
Clouds: unknown
Weather: no significant weather observed at this time